Gillette Campbell County Airport
KGCC : now visible

Airfield :











YOU CAN JOIN US ON...

 
LOGIN :

Register | Disclaimer

   EN    FR    IT 

 









Legend :    VFR   Marginal VFR   IFR   Intensive IFR   Very Intensive IFR
Visi :
Ceiling :
>= 8 km
>= 3000ft
5 to 8 km
1000 to 3000 ft
1500m to 5 km
500 to 1000 ft
800 to 1500m
200 to 500 ft
< 800m
< 200 ft
Symbols :   Thunderstorms  Fog  Heavy snow  Heavy precipitations  Wind > 20 kt






- Airport Elevation : 4365 ft


KGCC - Gillette Campbell County

CURRENT METAR :
  • 172053Z AUTO 33027G35KT 10SM BKN090 BKN110 M07/M10 A2972 RMK AO2 PK WND 33035/2053 PRESRR SLP087 T10671100 53051 $

EXPIRED METARs :
  • 171953Z AUTO 36019KT 10SM CLR 02/M05 A2961 RMK AO2 WSHFT 1851 SLP046 T00171050 $
  • 171911Z AUTO 34013G23KT 10SM CLR 07/M04 A2957 RMK AO2 WSHFT 1851 T00671039
  • 171853Z AUTO 25011KT 10SM CLR 07/M03 A2955 RMK AO2 SLP015 T00671033

TAF KGCC
Valid from the 17 at 21:00 until the 18 at 18:00 UTC


172129Z 1721/1818 33025G35KT P6SM BKN060
TEMPO 1722/1802 -SHSN BKN020
FM180200 29012KT P6SM BKN100
FM180600 23008KT P6SM SCT200



MET'MAP, your aeronautical weather chart ! - Copyright ORBIFLY December 2007 - Disclaimer

ORBIFLY MET'MAP TEAM :

Programming & Development : Alexandra Zaïnal
Concept & original design : Baudouin d'Aumeries
Assistance for programming : Marc-Olivier Méhu
Technical & hardware support : Manuel Goepfert

Contact : metmap@orbifly.com




SOURCES & CREDITS :

   NOAA       Earth
Advisory